Time;durP1;ratioP1;P1;durP2;ratioP2;P2;SDS_P1;SDS_P2;PMS_P1;PMS_P2;Temp;Humidity;BMP_temperature;BMP_pressure;BME280_temperature;BME280_humidity;BME280_pressure;Samples;Min_cycle;Max_cycle;Signal;HPM_P1;HPM_P2
2023/01/22 00:02:23;;;;;;;37.47;15.57;;;;;;;-1.96;100.00;103305.19;5021154;28;20037;-63
2023/01/22 00:04:48;;;;;;;35.88;14.70;;;;;;;-2.00;100.00;103314.88;5024415;28;20091;-63
2023/01/22 00:07:16;;;;;;;34.97;14.40;;;;;;;-2.04;100.00;103313.66;5023224;28;20076;-63
2023/01/22 00:09:41;;;;;;;38.58;15.50;;;;;;;-2.06;100.00;103314.19;5024412;28;20108;-63
2023/01/22 00:12:08;;;;;;;36.47;15.07;;;;;;;-2.05;100.00;103308.38;5023491;28;20037;-63
2023/01/22 00:14:33;;;;;;;33.95;14.57;;;;;;;-2.04;100.00;103316.19;5023744;28;20036;-63
2023/01/22 00:16:58;;;;;;;37.25;15.50;;;;;;;-2.00;100.00;103320.00;5022327;28;20033;-63
2023/01/22 00:19:23;;;;;;;37.40;15.32;;;;;;;-1.98;100.00;103321.09;5024206;28;20025;-63
2023/01/22 00:21:49;;;;;;;35.55;14.38;;;;;;;-1.98;100.00;103322.00;5023174;28;20109;-63
2023/01/22 00:24:14;;;;;;;35.28;14.55;;;;;;;-1.98;100.00;103318.56;5023780;28;20120;-63
2023/01/22 00:26:39;;;;;;;38.05;15.55;;;;;;;-2.00;100.00;103323.50;5022634;28;20128;-63
2023/01/22 00:29:05;;;;;;;37.47;15.63;;;;;;;-1.99;100.00;103314.16;5022123;28;20033;-64
2023/01/22 00:31:30;;;;;;;39.80;15.73;;;;;;;-1.99;100.00;103315.06;5039695;28;20044;-63
2023/01/22 00:33:56;;;;;;;38.90;15.93;;;;;;;-1.99;100.00;103299.75;5022067;28;20463;-63
2023/01/22 00:36:21;;;;;;;37.65;16.08;;;;;;;-1.98;100.00;103306.69;5021816;28;20114;-67
2023/01/22 00:38:48;;;;;;;41.17;16.33;;;;;;;-2.02;100.00;103301.94;5023275;28;20304;-67
2023/01/22 00:41:14;;;;;;;37.90;16.58;;;;;;;-2.04;100.00;103292.28;5023208;28;20048;-67
2023/01/22 00:43:40;;;;;;;37.30;15.88;;;;;;;-2.04;100.00;103292.28;5023090;28;20115;-67
2023/01/22 00:46:10;;;;;;;38.25;17.05;;;;;;;-2.05;100.00;103288.81;5022107;28;20494;-68
2023/01/22 00:48:36;;;;;;;37.55;15.98;;;;;;;-2.04;100.00;103294.84;5023300;28;20491;-68
2023/01/22 00:51:01;;;;;;;36.17;15.30;;;;;;;-2.04;100.00;103288.09;5023695;28;20032;-67
2023/01/22 00:53:26;;;;;;;38.08;15.85;;;;;;;-2.01;100.00;103292.66;5022859;28;20032;-68
2023/01/22 00:55:58;;;;;;;38.67;16.27;;;;;;;-2.03;100.00;103289.91;5023191;28;20509;-68
2023/01/22 00:58:24;;;;;;;35.20;15.60;;;;;;;-2.03;100.00;103289.91;5023611;28;20108;-68
2023/01/22 01:00:49;;;;;;;36.72;15.63;;;;;;;-2.05;100.00;103291.38;5023694;28;20051;-68
2023/01/22 01:03:31;;;;;;;35.40;15.80;;;;;;;-2.10;100.00;103284.81;5019754;28;20045;-68
2023/01/22 01:06:11;;;;;;;36.78;15.35;;;;;;;-2.11;100.00;103277.91;5022551;28;20306;-68
2023/01/22 01:08:38;;;;;;;34.25;15.50;;;;;;;-2.13;100.00;103279.38;5023165;28;20108;-68
2023/01/22 01:11:07;;;;;;;37.20;15.85;;;;;;;-2.16;100.00;103273.91;5023260;28;20484;-68
2023/01/22 01:13:37;;;;;;;37.03;15.18;;;;;;;-2.17;100.00;103282.31;5022321;28;20032;-68
2023/01/22 01:16:13;;;;;;;;;;;;;;;-2.13;100.00;103271.72;5022158;28;20049;-68
2023/01/22 01:18:38;;;;;;;34.33;14.95;;;;;;;-2.16;100.00;103273.91;5022884;28;19917;-68
2023/01/22 01:21:06;;;;;;;40.65;15.75;;;;;;;-2.17;100.00;103273.03;5023473;28;20036;-68
2023/01/22 01:23:31;;;;;;;34.38;15.43;;;;;;;-2.15;100.00;103275.75;5023116;28;20411;-68
2023/01/22 01:25:57;;;;;;;32.90;14.90;;;;;;;-2.18;100.00;103272.84;5023272;28;20036;-68
2023/01/22 01:28:23;;;;;;;38.60;16.10;;;;;;;-2.20;100.00;103274.28;5022699;28;20625;-68
2023/01/22 01:30:49;;;;;;;35.90;14.77;;;;;;;-2.21;100.00;103278.50;5023610;28;20022;-68
2023/01/22 01:33:14;;;;;;;36.63;15.48;;;;;;;-2.22;100.00;103273.22;5022991;28;20034;-68
2023/01/22 01:35:39;;;;;;;33.40;15.55;;;;;;;-2.23;100.00;103272.31;5022998;28;20052;-68
2023/01/22 01:38:05;;;;;;;36.38;15.15;;;;;;;-2.24;100.00;103262.84;5022302;28;20044;-68
2023/01/22 01:40:30;;;;;;;34.88;15.13;;;;;;;-2.25;100.00;103267.78;5021459;28;20305;-68
2023/01/22 01:42:56;;;;;;;35.97;15.27;;;;;;;-2.26;100.00;103266.84;5020425;28;20021;-68
2023/01/22 01:45:32;;;;;;;36.15;14.75;;;;;;;-2.29;100.00;103252.09;5019432;28;20040;-68
2023/01/22 01:48:22;;;;;;;30.55;13.60;;;;;;;-2.30;100.00;103250.28;5022167;28;20422;-68
2023/01/22 01:50:53;;;;;;;33.95;14.98;;;;;;;-2.31;100.00;103240.78;5022288;28;20124;-68
2023/01/22 01:53:18;;;;;;;35.38;15.45;;;;;;;-2.32;100.00;103232.94;5022770;28;20044;-68
2023/01/22 01:55:44;;;;;;;34.55;15.13;;;;;;;-2.35;100.00;103237.72;5020977;28;20029;-68
2023/01/22 01:58:17;;;;;;;31.95;14.45;;;;;;;-2.36;100.00;103231.72;5022447;28;20134;-68
2023/01/22 02:00:43;;;;;;;34.53;14.88;;;;;;;-2.37;100.00;103234.09;5025777;28;20510;-68
2023/01/22 02:03:08;;;;;;;35.47;15.52;;;;;;;-2.39;100.00;103231.38;5026529;28;20046;-68
2023/01/22 02:05:37;;;;;;;34.45;14.45;;;;;;;-2.39;100.00;103230.44;5025235;28;20448;-68
2023/01/22 02:08:03;;;;;;;31.52;14.07;;;;;;;-2.38;100.00;103232.25;5026222;28;20032;-68
2023/01/22 02:10:28;;;;;;;28.40;13.57;;;;;;;-2.39;100.00;103231.38;5023618;28;20034;-68
2023/01/22 02:12:59;;;;;;;32.78;13.57;;;;;;;-2.38;100.00;103227.16;5026304;28;20613;-68
2023/01/22 02:15:25;;;;;;;28.58;13.20;;;;;;;-2.39;100.00;103226.25;5025261;28;20037;-68
2023/01/22 02:17:50;;;;;;;34.05;14.38;;;;;;;-2.42;100.00;103218.22;5026116;28;20609;-68
2023/01/22 02:20:15;;;;;;;30.13;14.02;;;;;;;-2.42;100.00;103205.44;5025811;28;20041;-68
2023/01/22 02:22:41;;;;;;;32.08;14.00;;;;;;;-2.41;100.00;103209.84;5025522;28;20057;-68
2023/01/22 02:25:07;;;;;;;32.70;14.77;;;;;;;-2.41;100.00;103214.03;5024174;28;20029;-68
2023/01/22 02:27:32;;;;;;;29.45;13.52;;;;;;;-2.41;100.00;103214.94;5025650;28;20025;-68
2023/01/22 02:29:58;;;;;;;29.58;13.30;;;;;;;-2.39;100.00;103223.72;5026301;28;20356;-68
2023/01/22 02:32:23;;;;;;;29.08;13.15;;;;;;;-2.36;100.00;103220.56;5026060;28;20515;-68
2023/01/22 02:34:49;;;;;;;31.38;14.32;;;;;;;-2.34;100.00;103222.56;5023972;28;20037;-68
2023/01/22 02:37:14;;;;;;;32.80;13.70;;;;;;;-2.35;100.00;103223.28;5024044;28;20096;-68
2023/01/22 02:39:40;;;;;;;28.73;13.13;;;;;;;-2.37;100.00;103218.78;5026451;28;20037;-68
2023/01/22 02:42:06;;;;;;;28.65;13.35;;;;;;;-2.40;100.00;103218.38;5026318;28;20476;-68
2023/01/22 02:44:31;;;;;;;26.08;12.55;;;;;;;-2.41;100.00;103230.25;5024874;28;20021;-68
2023/01/22 02:46:56;;;;;;;28.95;13.43;;;;;;;-2.38;100.00;103222.03;5022778;28;20537;-68
2023/01/22 02:49:22;;;;;;;30.55;12.95;;;;;;;-2.37;100.00;103224.78;5025147;28;20033;-68
2023/01/22 02:51:47;;;;;;;30.65;14.07;;;;;;;-2.33;100.00;103218.34;5025361;28;20044;-68
2023/01/22 02:54:12;;;;;;;29.65;13.32;;;;;;;-2.29;100.00;103215.44;5025415;28;20025;-68
2023/01/22 02:56:38;;;;;;;31.45;13.70;;;;;;;-2.24;100.00;103223.63;5024687;28;20097;-68
2023/01/22 02:59:03;;;;;;;30.95;13.18;;;;;;;-2.19;100.00;103227.59;5025980;28;20071;-68
2023/01/22 03:01:29;;;;;;;30.30;14.07;;;;;;;-2.14;100.00;103229.03;5025101;28;20055;-68
2023/01/22 03:04:00;;;;;;;30.40;14.25;;;;;;;-2.08;100.00;103233.94;5023801;28;20069;-68
2023/01/22 03:06:27;;;;;;;31.48;14.02;;;;;;;-2.02;100.00;103225.31;5024506;28;20398;-68
2023/01/22 03:08:55;;;;;;;31.20;14.02;;;;;;;-1.98;100.00;103217.25;5025623;28;20407;-68
2023/01/22 03:11:21;;;;;;;29.15;13.80;;;;;;;-1.93;100.00;103226.38;5024195;28;20029;-68
2023/01/22 03:21:59;;;;;;;34.72;14.85;;;;;;;-1.78;100.00;103218.59;5025010;28;20072;-68
2023/01/22 03:24:24;;;;;;;31.58;13.57;;;;;;;-1.76;100.00;103214.56;5023562;28;20499;-68
2023/01/22 03:26:49;;;;;;;32.10;14.00;;;;;;;-1.72;100.00;103214.16;5023667;28;20091;-68
2023/01/22 03:29:15;;;;;;;31.60;14.90;;;;;;;-1.69;100.00;103209.41;5024482;28;20037;-68
2023/01/22 03:31:40;;;;;;;31.48;14.35;;;;;;;-1.68;100.00;103211.22;5024910;28;20094;-68
2023/01/22 03:34:05;;;;;;;32.25;14.40;;;;;;;-1.67;100.00;103215.56;5024929;28;20021;-68
2023/01/22 03:36:31;;;;;;;29.10;13.57;;;;;;;-1.67;100.00;103197.69;5024757;28;20399;-68
2023/01/22 03:38:56;;;;;;;31.08;14.98;;;;;;;-1.68;100.00;103193.31;5024963;28;20373;-68
2023/01/22 03:41:22;;;;;;;28.30;14.02;;;;;;;-1.68;100.00;103201.00;5024074;28;20038;-68
2023/01/22 03:43:47;;;;;;;32.38;14.75;;;;;;;-1.71;100.00;103195.50;5022297;28;20021;-68
2023/01/22 03:46:15;;;;;;;28.83;14.05;;;;;;;-1.72;100.00;103191.16;5023867;28;20182;-68
2023/01/22 03:48:41;;;;;;;30.27;13.75;;;;;;;-1.73;100.00;103185.88;5025066;28;20056;-68
2023/01/22 03:51:14;;;;;;;30.63;13.90;;;;;;;-1.76;100.00;103178.78;5024438;28;20033;-68
2023/01/22 03:53:40;;;;;;;29.92;13.77;;;;;;;-1.76;100.00;103189.00;5022140;28;20455;-68
2023/01/22 03:56:10;;;;;;;30.60;14.00;;;;;;;-1.78;100.00;103187.94;5022974;28;20043;-68
2023/01/22 03:58:36;;;;;;;31.70;14.27;;;;;;;-1.81;100.00;103193.59;5024468;28;20475;-68
2023/01/22 04:01:05;;;;;;;32.58;14.35;;;;;;;-1.82;100.00;103191.78;5023191;28;20112;-68
2023/01/22 04:03:30;;;;;;;29.95;13.82;;;;;;;-1.83;100.00;103194.16;5022975;28;20152;-68
2023/01/22 04:05:59;;;;;;;29.88;14.02;;;;;;;-1.86;100.00;103188.72;5020179;28;20024;-68
2023/01/22 04:08:25;;;;;;;29.13;14.05;;;;;;;-1.90;100.00;103194.22;5022798;28;20399;-68
2023/01/22 04:10:50;;;;;;;33.08;13.70;;;;;;;-1.93;100.00;103188.03;5023792;28;20025;-68
2023/01/22 04:13:15;;;;;;;26.40;13.43;;;;;;;-1.95;100.00;103198.81;5023239;28;20564;-68
2023/01/22 04:15:44;;;;;;;30.95;14.15;;;;;;;-2.00;100.00;103193.19;5024176;28;20021;-68
2023/01/22 04:18:10;;;;;;;28.27;13.80;;;;;;;-2.02;100.00;103193.75;5022656;28;20483;-68
2023/01/22 04:20:36;;;;;;;30.52;13.93;;;;;;;-2.04;100.00;103188.47;5023203;28;20359;-68
2023/01/22 04:23:01;;;;;;;26.48;13.02;;;;;;;-2.02;100.00;103197.22;5021846;28;20025;-68
2023/01/22 04:25:27;;;;;;;28.50;13.57;;;;;;;-2.02;100.00;103196.31;5021252;28;20076;-68
2023/01/22 04:27:52;;;;;;;30.70;14.25;;;;;;;-2.01;100.00;103188.81;5022027;28;20038;-68
2023/01/22 04:30:17;;;;;;;31.30;14.10;;;;;;;-1.98;100.00;103183.16;5021151;28;20403;-68
2023/01/22 04:32:43;;;;;;;31.67;13.15;;;;;;;-1.95;100.00;103189.50;5021961;28;20117;-68
2023/01/22 04:35:08;;;;;;;29.38;13.20;;;;;;;-1.94;100.00;103186.22;5023039;28;20108;-68
2023/01/22 04:37:34;;;;;;;30.73;13.50;;;;;;;-1.92;100.00;103184.72;5021775;28;20029;-68
2023/01/22 04:39:59;;;;;;;31.00;13.65;;;;;;;-1.88;100.00;103185.06;5021922;28;20034;-68
2023/01/22 04:42:26;;;;;;;27.65;13.52;;;;;;;-1.83;100.00;103186.50;5022976;28;20116;-68
2023/01/22 04:44:51;;;;;;;29.45;13.65;;;;;;;-1.81;100.00;103188.50;5023083;28;20083;-68
2023/01/22 04:47:16;;;;;;;29.83;14.25;;;;;;;-1.79;100.00;103176.78;5021700;28;20131;-68
2023/01/22 04:49:42;;;;;;;31.45;13.55;;;;;;;-1.77;100.00;103176.94;5023425;28;20104;-68
2023/01/22 04:52:07;;;;;;;31.13;13.98;;;;;;;-1.76;100.00;103171.09;5020680;28;20720;-68
2023/01/22 04:54:32;;;;;;;26.05;12.27;;;;;;;-1.73;100.00;103179.13;5021998;28;20144;-68
2023/01/22 04:56:57;;;;;;;27.58;12.25;;;;;;;-1.71;100.00;103180.19;5021705;28;20488;-68
2023/01/22 04:59:23;;;;;;;28.88;13.55;;;;;;;-1.71;100.00;103175.06;5020627;28;20075;-68
2023/01/22 05:01:49;;;;;;;31.15;13.77;;;;;;;-1.71;100.00;103172.50;5022008;28;20107;-68
2023/01/22 05:04:15;;;;;;;29.02;12.63;;;;;;;-1.70;100.00;103179.44;5021648;28;20049;-68
2023/01/22 05:06:41;;;;;;;25.85;12.75;;;;;;;-1.69;100.00;103175.25;5021712;28;20037;-68
2023/01/22 05:09:06;;;;;;;25.63;12.68;;;;;;;-1.68;100.00;103178.00;5023117;28;20025;-68
2023/01/22 05:11:31;;;;;;;30.20;12.88;;;;;;;-1.68;100.00;103172.88;5020601;28;20421;-68
2023/01/22 05:13:56;;;;;;;26.50;12.25;;;;;;;-1.65;100.00;103175.78;5022278;28;20025;-68
2023/01/22 05:16:22;;;;;;;29.70;13.10;;;;;;;-1.65;100.00;103170.66;5023152;28;20029;-68
2023/01/22 05:18:47;;;;;;;26.20;12.07;;;;;;;-1.65;100.00;103173.22;5022004;28;20029;-68
2023/01/22 05:21:12;;;;;;;27.25;12.85;;;;;;;-1.63;100.00;103173.38;5021453;28;20040;-68
2023/01/22 05:23:37;;;;;;;27.88;12.60;;;;;;;-1.62;100.00;103180.31;5021206;28;20056;-68
2023/01/22 05:26:03;;;;;;;26.90;11.95;;;;;;;-1.62;100.00;103190.53;5021651;28;20025;-68
2023/01/22 05:28:28;;;;;;;26.40;11.27;;;;;;;-1.60;100.00;103189.94;5022994;28;20117;-68
2023/01/22 05:30:53;;;;;;;28.38;12.40;;;;;;;-1.58;100.00;103193.59;5022731;28;20116;-68
2023/01/22 05:33:19;;;;;;;25.35;12.07;;;;;;;-1.55;100.00;103192.09;5023497;28;20033;-68
2023/01/22 05:35:44;;;;;;;27.77;12.15;;;;;;;-1.55;100.00;103192.09;5026652;28;20069;-69
2023/01/22 05:38:09;;;;;;;26.45;11.63;;;;;;;-1.53;100.00;103193.22;5025719;28;20029;-68
2023/01/22 05:40:34;;;;;;;25.83;12.15;;;;;;;-1.52;100.00;103200.13;5024045;28;20096;-68
2023/01/22 05:43:02;;;;;;;27.90;11.95;;;;;;;-1.51;100.00;103195.16;5027287;28;20021;-68
2023/01/22 05:45:27;;;;;;;29.25;13.32;;;;;;;-1.50;100.00;103199.56;5025460;28;20029;-68
2023/01/22 05:47:53;;;;;;;29.02;11.77;;;;;;;-1.49;100.00;103203.00;5026884;28;20380;-68
2023/01/22 05:50:19;;;;;;;26.60;11.55;;;;;;;-1.47;100.00;103206.66;5026330;28;20335;-68
2023/01/22 05:52:44;;;;;;;27.42;11.95;;;;;;;-1.46;100.00;103201.72;5026153;28;20025;-68
2023/01/22 05:55:10;;;;;;;30.83;13.43;;;;;;;-1.44;100.00;103215.56;5026202;28;20029;-68
2023/01/22 05:57:35;;;;;;;25.73;12.35;;;;;;;-1.44;100.00;103212.09;5027319;28;20121;-68
2023/01/22 06:00:01;;;;;;;26.58;11.73;;;;;;;-1.44;100.00;103212.09;5026692;28;20399;-68
2023/01/22 06:02:26;;;;;;;26.73;12.60;;;;;;;-1.43;100.00;103208.81;5026154;28;20046;-68
2023/01/22 06:04:52;;;;;;;27.08;11.40;;;;;;;-1.43;100.00;103208.81;5023590;28;20141;-68
2023/01/22 06:07:17;;;;;;;28.48;12.15;;;;;;;-1.43;100.00;103211.38;5023950;28;20056;-68
2023/01/22 06:09:42;;;;;;;26.40;12.43;;;;;;;-1.41;100.00;103207.31;5025287;28;20104;-68
2023/01/22 06:12:08;;;;;;;25.08;11.93;;;;;;;-1.43;100.00;103204.59;5026488;28;20498;-68
2023/01/22 06:14:33;;;;;;;24.00;11.63;;;;;;;-1.43;100.00;103206.25;5025478;28;20021;-68
2023/01/22 06:16:58;;;;;;;27.45;12.10;;;;;;;-1.41;100.00;103207.31;5026355;28;20108;-68
2023/01/22 06:19:24;;;;;;;25.10;11.45;;;;;;;-1.42;100.00;103200.38;5025205;28;20400;-68
2023/01/22 06:21:49;;;;;;;26.92;12.38;;;;;;;-1.42;100.00;103205.50;5026447;28;20039;-68
2023/01/22 06:24:14;;;;;;;25.77;11.90;;;;;;;-1.43;100.00;103213.94;5025038;28;20037;-68
2023/01/22 06:26:39;;;;;;;26.52;12.95;;;;;;;-1.42;100.00;103211.53;5024708;28;20582;-68
2023/01/22 06:29:05;;;;;;;26.95;11.82;;;;;;;-1.42;100.00;103216.66;5023462;28;20131;-68
2023/01/22 06:31:31;;;;;;;27.00;11.93;;;;;;;-1.43;100.00;103217.38;5025389;28;20038;-68
2023/01/22 06:33:56;;;;;;;25.23;11.45;;;;;;;-1.43;100.00;103217.38;5024185;28;20120;-68
2023/01/22 06:36:22;;;;;;;27.60;11.77;;;;;;;-1.41;100.00;103222.66;5024882;28;20060;-68
2023/01/22 06:38:48;;;;;;;28.83;12.40;;;;;;;-1.40;100.00;103214.25;5024309;28;20495;-68
2023/01/22 06:41:13;;;;;;;27.92;12.25;;;;;;;-1.39;100.00;103210.97;5024188;28;20649;-68
2023/01/22 06:43:38;;;;;;;27.92;12.57;;;;;;;-1.39;100.00;103210.97;5025422;28;20063;-68
2023/01/22 06:46:04;;;;;;;27.33;12.02;;;;;;;-1.38;100.00;103212.78;5024782;28;20440;-68
2023/01/22 06:48:29;;;;;;;28.83;12.63;;;;;;;-1.40;100.00;103210.06;5024201;28;20488;-68
2023/01/22 06:50:58;;;;;;;27.67;12.60;;;;;;;-1.39;100.00;103216.09;5026348;28;20156;-68
2023/01/22 06:53:24;;;;;;;25.67;12.27;;;;;;;-1.38;100.00;103219.53;5025869;28;20034;-68
2023/01/22 06:55:50;;;;;;;32.92;13.32;;;;;;;-1.39;100.00;103223.75;5024781;28;20025;-68
2023/01/22 06:58:15;;;;;;;28.83;12.30;;;;;;;-1.39;100.00;103221.22;5022767;28;20203;-68
2023/01/22 07:00:40;;;;;;;27.33;12.05;;;;;;;-1.39;100.00;103226.31;5025121;28;20033;-68
2023/01/22 07:03:06;;;;;;;27.58;11.73;;;;;;;-1.38;100.00;103222.09;5024281;28;20052;-68
2023/01/22 07:05:32;;;;;;;26.70;11.65;;;;;;;-1.39;100.00;103218.66;5022708;28;20036;-68
2023/01/22 07:07:57;;;;;;;27.83;12.02;;;;;;;-1.38;100.00;103217.00;5024046;28;20029;-68
2023/01/22 07:10:23;;;;;;;25.25;12.55;;;;;;;-1.39;100.00;103221.22;5021937;28;20044;-68
2023/01/22 07:12:53;;;;;;;28.65;12.50;;;;;;;-1.39;100.00;103223.75;5024921;28;20021;-68
2023/01/22 07:15:18;;;;;;;26.85;12.38;;;;;;;-1.38;100.00;103225.56;5024533;28;20037;-68
2023/01/22 07:17:49;;;;;;;28.77;11.38;;;;;;;-1.37;100.00;103226.50;5025559;28;20475;-68
2023/01/22 07:20:15;;;;;;;28.85;11.75;;;;;;;-1.35;100.00;103225.00;5024607;28;20527;-68
2023/01/22 07:22:40;;;;;;;26.63;12.48;;;;;;;-1.33;100.00;103226.06;5025486;28;20059;-68
2023/01/22 07:25:06;;;;;;;26.60;11.23;;;;;;;-1.33;100.00;103227.00;5023429;28;20108;-68
2023/01/22 07:27:33;;;;;;;25.98;11.70;;;;;;;-1.34;100.00;103225.16;5025491;28;20116;-68
2023/01/22 07:29:59;;;;;;;26.42;12.05;;;;;;;-1.34;100.00;103232.84;5024254;28;20111;-68
2023/01/22 07:32:24;;;;;;;26.30;11.48;;;;;;;-1.32;100.00;103228.81;5025408;28;20030;-68
2023/01/22 07:34:49;;;;;;;25.33;11.60;;;;;;;-1.31;100.00;103229.72;5025379;28;20041;-68
2023/01/22 07:37:14;;;;;;;24.10;11.38;;;;;;;-1.30;100.00;103227.31;5021520;28;20479;-68
2023/01/22 07:39:40;;;;;;;26.80;11.73;;;;;;;-1.29;100.00;103231.72;5022306;28;20033;-68
2023/01/22 07:42:05;;;;;;;28.35;12.38;;;;;;;-1.27;100.00;103229.31;5022184;28;20390;-68
2023/01/22 07:44:30;;;;;;;29.23;12.65;;;;;;;-1.28;100.00;103228.38;5020836;28;20510;-68
2023/01/22 07:46:55;;;;;;;24.83;10.82;;;;;;;-1.27;100.00;103231.88;5018384;28;20153;-68
2023/01/22 07:49:21;;;;;;;25.67;11.35;;;;;;;-1.28;100.00;103225.81;5020226;28;20047;-68
2023/01/22 07:51:46;;;;;;;24.90;11.77;;;;;;;-1.28;100.00;103236.06;5022528;28;20092;-68
2023/01/22 07:54:11;;;;;;;26.48;11.45;;;;;;;-1.25;100.00;103243.16;5020421;28;20067;-68
2023/01/22 07:56:36;;;;;;;24.38;11.68;;;;;;;-1.24;100.00;103238.22;5016930;28;20079;-68
2023/01/22 07:59:02;;;;;;;28.83;12.30;;;;;;;-1.24;100.00;103238.22;5021729;28;20036;-68
2023/01/22 08:01:27;;;;;;;27.85;11.60;;;;;;;-1.23;100.00;103242.59;5022838;28;20063;-68
2023/01/22 08:03:52;;;;;;;26.27;11.38;;;;;;;-1.21;100.00;103240.22;5021700;28;20128;-68
2023/01/22 08:06:21;;;;;;;24.17;11.15;;;;;;;-1.21;100.00;103239.31;5019137;28;20479;-68
2023/01/22 08:08:46;;;;;;;26.70;11.52;;;;;;;-1.19;100.00;103235.25;5021782;28;20487;-68
2023/01/22 08:11:12;;;;;;;26.10;10.90;;;;;;;-1.16;100.00;103240.72;5022209;28;20035;-68
2023/01/22 08:13:37;;;;;;;25.92;10.88;;;;;;;-1.14;100.00;103244.38;5022518;28;20022;-68
2023/01/22 08:16:02;;;;;;;24.63;10.65;;;;;;;-1.12;100.00;103243.78;5021654;28;20090;-69
2023/01/22 08:18:28;;;;;;;23.67;10.98;;;;;;;-1.07;100.00;103251.97;5020729;28;20034;-68
2023/01/22 08:20:53;;;;;;;24.15;10.50;;;;;;;-1.05;100.00;103241.13;5021716;28;20091;-68
2023/01/22 08:23:18;;;;;;;23.25;10.50;;;;;;;-1.00;100.00;103254.47;5020823;28;21487;-68
2023/01/22 08:25:44;;;;;;;22.00;10.85;;;;;;;-0.98;100.00;103245.28;5022593;28;20030;-68
2023/01/22 08:28:09;;;;;;;22.75;11.00;;;;;;;-0.95;100.00;103252.41;5021000;28;20028;-68
2023/01/22 08:30:35;;;;;;;22.70;10.70;;;;;;;-0.92;100.00;103255.28;5022372;28;20049;-68
2023/01/22 08:33:03;;;;;;;24.52;10.18;;;;;;;-0.91;100.00;103255.44;5022460;28;20118;-68
2023/01/22 08:35:29;;;;;;;22.00;10.55;;;;;;;-0.89;100.00;103263.28;5021119;28;20017;-68
2023/01/22 08:37:59;;;;;;;21.38;10.55;;;;;;;-0.89;100.00;103265.84;5014860;28;20061;-63
2023/01/22 08:40:25;;;;;;;21.75;10.32;;;;;;;-0.86;100.00;103267.84;5020230;28;20119;-64
2023/01/22 08:42:52;;;;;;;24.65;10.60;;;;;;;-0.85;100.00;103267.09;5023589;28;20021;-64
2023/01/22 08:45:17;;;;;;;22.45;10.45;;;;;;;-0.84;100.00;103259.59;5022655;28;20083;-64
2023/01/22 08:47:43;;;;;;;20.70;9.88;;;;;;;-0.84;100.00;103257.03;5020346;28;20034;-64
2023/01/22 08:50:08;;;;;;;22.10;10.43;;;;;;;-0.84;100.00;103256.13;5019540;28;20013;-64
2023/01/22 08:52:34;;;;;;;23.23;9.95;;;;;;;-0.82;100.00;103254.66;5022007;28;20486;-64
2023/01/22 08:54:59;;;;;;;22.50;9.82;;;;;;;-0.82;100.00;103255.53;5020798;28;20559;-64
2023/01/22 08:57:24;;;;;;;22.27;10.50;;;;;;;-0.80;100.00;103260.81;5022364;28;20045;-63
2023/01/22 08:59:50;;;;;;;20.23;9.55;;;;;;;-0.78;100.00;103262.81;5022604;28;20526;-64
2023/01/22 09:02:15;;;;;;;23.73;11.25;;;;;;;-0.78;100.00;103256.75;5021507;28;20033;-63
2023/01/22 09:04:40;;;;;;;22.77;9.88;;;;;;;-0.78;100.00;103261.88;5020010;28;20037;-63
2023/01/22 09:07:06;;;;;;;20.55;9.55;;;;;;;-0.81;100.00;103262.50;5020949;28;20059;-63
2023/01/22 09:09:31;;;;;;;20.65;9.50;;;;;;;-0.81;100.00;103254.81;5019706;28;20537;-64
2023/01/22 09:11:57;;;;;;;20.42;9.57;;;;;;;-0.82;100.00;103258.09;5022444;28;20601;-63
2023/01/22 09:14:22;;;;;;;20.40;9.48;;;;;;;-0.81;100.00;103256.44;5023303;28;20049;-64
2023/01/22 09:16:47;;;;;;;20.27;9.00;;;;;;;-0.80;100.00;103259.16;5023254;28;20046;-64
2023/01/22 09:19:13;;;;;;;20.35;9.55;;;;;;;-0.79;100.00;103265.22;5020952;28;20044;-64
2023/01/22 09:21:38;;;;;;;18.75;9.30;;;;;;;-0.78;100.00;103267.00;5020397;28;20025;-64
2023/01/22 09:24:05;;;;;;;21.30;9.63;;;;;;;-0.77;100.00;103268.84;5021262;28;20487;-64
2023/01/22 09:26:31;;;;;;;19.98;9.07;;;;;;;-0.75;100.00;103272.50;5019736;28;20022;-64
2023/01/22 09:28:59;;;;;;;20.02;8.95;;;;;;;-0.72;100.00;103270.25;5015136;28;20017;-64
2023/01/22 09:31:24;;;;;;;19.90;9.50;;;;;;;-0.70;100.00;103276.44;5011464;28;20543;-64
2023/01/22 09:33:50;;;;;;;22.38;9.65;;;;;;;-0.69;100.00;103273.16;5020487;28;20092;-64
2023/01/22 09:36:15;;;;;;;20.10;9.48;;;;;;;-0.67;100.00;103269.09;5020765;28;20041;-64
2023/01/22 09:38:42;;;;;;;23.65;9.10;;;;;;;-0.64;100.00;103278.75;5020192;28;20032;-64
2023/01/22 09:41:29;;;;;;;20.25;9.48;;;;;;;-0.62;100.00;103277.25;5019694;28;20022;-64
2023/01/22 09:44:00;;;;;;;18.80;8.77;;;;;;;-0.62;100.00;103270.50;5018341;28;20046;-63
2023/01/22 09:46:41;;;;;;;19.70;9.80;;;;;;;-0.58;100.00;103285.47;5019019;28;20026;-64
2023/01/22 09:49:18;;;;;;;21.67;9.68;;;;;;;-0.55;100.00;103282.28;5018745;28;20037;-64
2023/01/22 09:51:48;;;;;;;19.95;9.07;;;;;;;-0.56;100.00;103280.50;5016155;28;20490;-64
2023/01/22 09:54:16;;;;;;;;;;;;;;;-0.55;100.00;103284.84;5015958;28;20052;-64
2023/01/22 09:56:44;;;;;;;17.95;8.77;;;;;;;-0.59;100.00;103278.50;5022473;28;20012;-64
2023/01/22 09:59:31;;;;;;;19.95;9.85;;;;;;;-0.60;100.00;103279.25;5021199;28;20036;-64
2023/01/22 10:02:00;;;;;;;22.52;9.73;;;;;;;-0.59;100.00;103272.50;5019355;28;20037;-64
2023/01/22 10:04:33;;;;;;;20.85;10.20;;;;;;;-0.60;100.00;103281.81;5022293;28;20072;-64
2023/01/22 10:07:01;;;;;;;20.90;8.95;;;;;;;-0.60;100.00;103276.69;5020401;28;20044;-64
2023/01/22 10:09:30;;;;;;;21.52;9.45;;;;;;;-0.59;100.00;103281.06;5021621;28;20116;-64
2023/01/22 10:11:57;;;;;;;19.02;9.63;;;;;;;-0.57;100.00;103282.13;5021774;28;20025;-64
2023/01/22 10:14:26;;;;;;;21.02;9.63;;;;;;;-0.56;100.00;103288.19;5022377;28;20029;-64
2023/01/22 10:16:51;;;;;;;18.95;9.23;;;;;;;-0.56;100.00;103281.41;5022606;28;20029;-64
2023/01/22 10:19:28;;;;;;;20.30;9.65;;;;;;;-0.57;100.00;103287.25;5024857;28;20040;-64
2023/01/22 10:22:15;;;;;;;18.98;8.95;;;;;;;-0.55;100.00;103297.66;5039478;28;20589;-64
2023/01/22 10:24:41;;;;;;;21.00;9.55;;;;;;;-0.55;100.00;103289.97;5019582;28;20084;-64
2023/01/22 10:27:16;;;;;;;20.83;9.90;;;;;;;-0.54;100.00;103290.19;5018669;28;20021;-64
2023/01/22 10:29:44;;;;;;;22.33;10.63;;;;;;;-0.55;100.00;103285.78;5020960;28;20037;-64
2023/01/22 10:32:21;;;;;;;21.42;9.57;;;;;;;-0.54;100.00;103285.06;5022558;28;20033;-64
2023/01/22 10:35:06;;;;;;;21.27;9.95;;;;;;;-0.51;100.00;103275.88;5021023;28;20034;-64
2023/01/22 10:37:46;;;;;;;18.17;9.18;;;;;;;-0.51;100.00;103279.34;5025440;28;20535;-68
2023/01/22 10:40:31;;;;;;;21.48;9.00;;;;;;;-0.49;100.00;103280.41;5023058;28;20025;-68
2023/01/22 10:43:02;;;;;;;19.58;9.20;;;;;;;-0.50;100.00;103277.69;5020643;28;20053;-68
2023/01/22 10:45:28;;;;;;;19.55;9.20;;;;;;;-0.51;100.00;103273.31;5020681;28;20083;-68
2023/01/22 10:48:10;;;;;;;15.85;8.68;;;;;;;-0.51;100.00;103283.56;5022943;28;20038;-68
2023/01/22 10:50:35;;;;;;;18.75;8.95;;;;;;;-0.51;100.00;103289.56;5024630;28;20040;-68
2023/01/22 10:53:02;;;;;;;21.38;10.23;;;;;;;-0.50;100.00;103295.63;5023481;28;20392;-68
2023/01/22 10:55:31;;;;;;;19.30;9.52;;;;;;;-0.49;100.00;103290.66;5025071;28;20036;-68
2023/01/22 10:58:16;;;;;;;17.83;9.10;;;;;;;-0.47;100.00;103296.84;5022686;28;20025;-68
2023/01/22 11:00:41;;;;;;;19.27;9.88;;;;;;;-0.47;100.00;103293.41;5025522;28;20044;-68
2023/01/22 11:03:21;;;;;;;20.42;9.00;;;;;;;-0.46;100.00;103293.56;5025087;28;20057;-69
2023/01/22 11:05:51;;;;;;;18.83;9.30;;;;;;;-0.47;100.00;103290.84;5022202;28;20037;-68
2023/01/22 11:08:20;;;;;;;19.90;9.80;;;;;;;-0.47;100.00;103271.25;5019831;28;20565;-68
2023/01/22 11:10:56;;;;;;;19.65;9.38;;;;;;;-0.42;100.00;103261.47;5020658;28;20042;-68
2023/01/22 11:13:40;;;;;;;19.10;9.30;;;;;;;-0.39;100.00;103272.06;5020765;28;20052;-68